createdAt,value
2019-05-13T00:00:58.744Z,68.01
2019-05-13T00:03:33.393Z,68.00
2019-05-13T00:06:06.236Z,67.61
2019-05-13T00:08:38.885Z,66.37
2019-05-13T00:11:13.673Z,67.11
2019-05-13T00:13:46.124Z,66.47
2019-05-13T00:16:18.924Z,68.36
2019-05-13T00:18:53.479Z,67.82
2019-05-13T00:21:25.878Z,67.52
2019-05-13T00:23:58.618Z,67.51
2019-05-13T00:26:33.605Z,68.22
2019-05-13T00:29:05.547Z,68.47
2019-05-13T00:31:38.143Z,66.96
2019-05-13T00:34:10.977Z,67.65
2019-05-13T00:36:44.544Z,67.03
2019-05-13T00:39:17.303Z,68.65
2019-05-13T00:41:50.068Z,68.46
2019-05-13T00:44:24.441Z,67.11
2019-05-13T00:46:57.104Z,68.72
2019-05-13T00:49:29.728Z,68.20
2019-05-13T00:52:03.864Z,66.40
2019-05-13T00:54:36.658Z,68.19
2019-05-13T00:57:13.354Z,68.32
2019-05-13T00:59:45.398Z,67.57
2019-05-13T01:02:18.044Z,67.76
2019-05-13T01:04:50.726Z,68.53
2019-05-13T01:07:28.553Z,70.24
2019-05-13T01:09:57.667Z,70.02
2019-05-13T01:12:30.299Z,67.80
2019-05-13T01:15:04.112Z,68.12
2019-05-13T01:17:38.389Z,67.13
2019-05-13T01:20:14.188Z,66.80
2019-05-13T01:22:47.373Z,66.65
2019-05-13T01:25:20.027Z,66.71
2019-05-13T01:27:53.712Z,68.68
2019-05-13T01:30:26.482Z,66.05
2019-05-13T01:32:59.273Z,66.75
2019-05-13T01:35:34.268Z,66.50
2019-05-13T01:38:06.418Z,67.01
2019-05-13T01:40:39.826Z,67.70
2019-05-13T01:43:14.352Z,67.99
2019-05-13T01:45:46.875Z,68.62
2019-05-13T01:48:19.624Z,69.08
2019-05-13T01:50:53.378Z,67.54
2019-05-13T01:53:26.019Z,68.15
2019-05-13T01:55:58.791Z,69.25
2019-05-13T01:58:33.810Z,68.48
2019-05-13T02:01:05.856Z,69.36
2019-05-13T02:03:38.481Z,70.77
2019-05-13T02:06:11.269Z,71.68
2019-05-13T02:08:44.397Z,72.28
2019-05-13T02:11:18.754Z,70.78
2019-05-13T02:13:53.993Z,71.97
2019-05-13T02:16:25.958Z,71.95
2019-05-13T02:18:58.989Z,72.09
2019-05-13T02:21:33.663Z,71.94
2019-05-13T02:24:05.960Z,71.85
2019-05-13T02:26:38.577Z,73.13
2019-05-13T02:29:11.258Z,72.41
2019-05-13T02:31:50.945Z,73.03
2019-05-13T02:34:18.152Z,70.29
2019-05-13T02:36:52.733Z,71.42
2019-05-13T02:39:25.105Z,70.08
2019-05-13T02:41:57.709Z,70.63
2019-05-13T02:44:33.243Z,70.01
2019-05-13T02:47:04.915Z,70.03
2019-05-13T02:49:37.536Z,70.52
2019-05-13T02:52:13.016Z,70.48
2019-05-13T02:54:48.725Z,72.21
2019-05-13T02:57:23.349Z,71.88
2019-05-13T02:59:55.670Z,72.71
2019-05-13T03:02:28.342Z,70.74
2019-05-13T03:05:03.163Z,71.71
2019-05-13T03:07:35.268Z,71.39
2019-05-13T03:10:13.548Z,72.77
2019-05-13T03:12:45.039Z,73.71
2019-05-13T03:15:17.842Z,73.07
2019-05-13T03:18:08.715Z,72.81
2019-05-13T03:20:43.117Z,74.44
2019-05-13T03:23:15.963Z,74.77
2019-05-13T03:25:49.058Z,75.29
2019-05-13T03:28:22.518Z,76.48
2019-05-13T03:30:56.682Z,75.47
2019-05-13T03:33:35.889Z,75.67
2019-05-13T03:36:07.309Z,75.86
2019-05-13T03:38:59.383Z,75.00
2019-05-13T03:41:17.889Z,75.18
2019-05-13T03:43:53.611Z,74.57
2019-05-13T03:46:27.054Z,71.65
2019-05-13T03:49:03.416Z,73.31
2019-05-13T03:51:36.001Z,73.87
2019-05-13T03:54:12.647Z,74.05
2019-05-13T03:56:44.473Z,72.94
2019-05-13T03:59:17.125Z,73.64
2019-05-13T04:01:52.451Z,74.27
2019-05-13T04:04:24.250Z,74.97
2019-05-13T04:06:56.836Z,74.19
2019-05-13T04:09:32.528Z,72.82
2019-05-13T04:12:04.165Z,72.86
2019-05-13T04:14:36.792Z,73.56
2019-05-13T04:17:12.362Z,73.18
2019-05-13T04:19:43.746Z,73.91
2019-05-13T04:22:16.370Z,72.56
2019-05-13T04:24:52.914Z,71.51
2019-05-13T04:27:24.766Z,71.68
2019-05-13T04:29:57.470Z,72.01
2019-05-13T04:32:33.330Z,71.76
2019-05-13T04:35:04.713Z,71.79
2019-05-13T04:37:37.289Z,71.77
2019-05-13T04:40:12.842Z,71.71
2019-05-13T04:42:45.555Z,72.52
2019-05-13T04:45:18.248Z,71.07
2019-05-13T04:47:52.820Z,71.72
2019-05-13T04:50:25.248Z,72.35
2019-05-13T04:52:57.802Z,71.91
2019-05-13T04:55:33.313Z,72.55
2019-05-13T04:58:04.947Z,72.77
2019-05-13T05:01:24.871Z,72.40
2019-05-13T05:04:22.396Z,71.61
2019-05-13T05:07:18.205Z,71.21
2019-05-13T05:10:30.427Z,71.14
2019-05-13T05:13:36.237Z,71.87
2019-05-13T05:17:08.417Z,69.89
2019-05-13T05:20:23.108Z,69.46
2019-05-13T05:23:22.074Z,69.87
2019-05-13T05:26:34.150Z,69.15
2019-05-13T05:29:48.092Z,68.55
2019-05-13T05:33:18.524Z,68.05
2019-05-13T05:36:28.065Z,67.62
2019-05-13T05:39:24.996Z,68.27
2019-05-13T05:41:58.927Z,67.87
2019-05-13T05:44:32.886Z,68.39
2019-05-13T05:47:06.017Z,67.23
2019-05-13T05:49:42.304Z,67.07
2019-05-13T05:52:16.389Z,67.37
2019-05-13T05:54:53.372Z,67.40
2019-05-13T05:57:27.837Z,66.57
2019-05-13T06:00:03.149Z,65.34
2019-05-13T06:02:37.309Z,66.82
2019-05-13T06:05:12.491Z,66.50
2019-05-13T06:07:45.279Z,66.75
2019-05-13T06:10:18.392Z,67.99
2019-05-13T06:12:52.277Z,65.96
2019-05-13T06:15:25.118Z,67.79
2019-05-13T06:17:57.750Z,65.12
2019-05-13T06:20:31.700Z,66.11
2019-05-13T06:23:04.481Z,64.45
2019-05-13T06:25:37.034Z,66.32
2019-05-13T06:28:12.235Z,63.95
2019-05-13T06:30:44.298Z,62.75
2019-05-13T06:33:17.094Z,63.21
2019-05-13T06:35:51.960Z,63.14
2019-05-13T06:38:23.709Z,63.02
2019-05-13T06:41:02.664Z,65.00
2019-05-13T06:43:31.479Z,62.16
2019-05-13T06:46:04.266Z,62.44
2019-05-13T06:48:36.805Z,62.72
2019-05-13T06:51:11.582Z,63.04
2019-05-13T06:53:43.854Z,63.61
2019-05-13T06:56:16.692Z,63.98
2019-05-13T06:58:51.820Z,62.63
2019-05-13T07:01:23.708Z,62.14
2019-05-13T07:03:56.369Z,63.87
2019-05-13T07:06:28.989Z,61.73
2019-05-13T07:09:01.749Z,60.35
2019-05-13T07:11:34.692Z,61.17
2019-05-13T07:14:07.799Z,60.15
2019-05-13T07:16:42.170Z,59.04
2019-05-13T07:19:15.038Z,59.79
2019-05-13T07:21:47.810Z,57.78
2019-05-13T07:24:21.439Z,57.74
2019-05-13T07:26:54.243Z,58.62
2019-05-13T07:29:27.126Z,56.50
2019-05-13T07:32:01.705Z,56.41
2019-05-13T07:34:34.238Z,56.00
2019-05-13T07:37:07.050Z,57.98
2019-05-13T07:39:41.914Z,56.98
2019-05-13T07:42:14.746Z,58.98
2019-05-13T07:44:47.462Z,57.19
2019-05-13T07:47:22.354Z,54.27
2019-05-13T07:49:54.596Z,52.94
2019-05-13T07:52:27.421Z,53.46
2019-05-13T07:55:01.607Z,54.24
2019-05-13T07:57:34.452Z,55.39
2019-05-13T08:00:08.499Z,53.78
2019-05-13T08:02:41.811Z,49.73
2019-05-13T08:05:15.309Z,52.13
2019-05-13T08:07:48.133Z,52.10
2019-05-13T08:10:22.032Z,51.97
2019-05-13T08:12:54.832Z,54.25
2019-05-13T08:15:27.909Z,54.41
2019-05-13T08:18:02.032Z,53.24
2019-05-13T08:20:34.996Z,51.92
2019-05-13T08:23:07.744Z,52.82
2019-05-13T08:25:42.458Z,50.72
2019-05-13T08:28:15.230Z,48.48
2019-05-13T08:30:47.917Z,45.24
2019-05-13T08:33:22.697Z,49.67
2019-05-13T08:35:58.770Z,52.22
2019-05-13T08:38:31.871Z,52.06
2019-05-13T08:41:03.948Z,50.62
2019-05-13T08:43:36.716Z,51.49
2019-05-13T08:46:09.632Z,52.81
2019-05-13T08:48:42.964Z,53.62
2019-05-13T08:51:15.719Z,52.80
2019-05-13T08:53:48.374Z,52.15
2019-05-13T08:56:21.806Z,51.87
2019-05-13T08:58:54.539Z,50.23
2019-05-13T09:01:27.311Z,52.37
2019-05-13T09:04:02.299Z,50.92
2019-05-13T09:06:34.874Z,50.66
2019-05-13T09:09:11.559Z,51.55
2019-05-13T09:11:43.927Z,52.36
2019-05-13T09:14:16.865Z,47.60
2019-05-13T09:16:52.357Z,49.82
2019-05-13T09:19:24.091Z,49.76
2019-05-13T09:21:56.803Z,50.61
2019-05-13T09:24:36.642Z,50.13
2019-05-13T09:27:03.881Z,48.71
2019-05-13T09:29:36.595Z,50.53
2019-05-13T09:32:11.908Z,50.26
2019-05-13T09:34:43.898Z,52.47
2019-05-13T09:37:16.673Z,50.55
2019-05-13T09:39:51.625Z,51.63
2019-05-13T09:42:23.892Z,49.01
2019-05-13T09:44:56.736Z,46.85
2019-05-13T09:47:29.384Z,49.21
2019-05-13T09:50:04.442Z,49.34
2019-05-13T09:52:39.657Z,48.63
2019-05-13T09:55:25.314Z,48.46
2019-05-13T09:57:46.627Z,48.31
2019-05-13T10:00:21.792Z,48.43
2019-05-13T10:02:53.891Z,47.70
2019-05-13T10:05:26.607Z,48.59
2019-05-13T10:08:02.117Z,50.07
2019-05-13T10:10:33.983Z,48.01
2019-05-13T10:13:11.992Z,44.23
2019-05-13T10:15:42.213Z,42.92
2019-05-13T10:18:15.070Z,44.10
2019-05-13T10:20:58.792Z,42.15
2019-05-13T10:23:32.933Z,42.53
2019-05-13T10:26:13.636Z,38.58
2019-05-13T10:28:44.987Z,41.26
2019-05-13T10:31:17.797Z,36.09
2019-05-13T10:33:51.385Z,41.73
2019-05-13T10:36:24.324Z,38.83
2019-05-13T10:38:57.024Z,40.97
2019-05-13T10:41:33.006Z,39.13
2019-05-13T10:44:04.474Z,38.91
2019-05-13T10:46:37.189Z,39.47
2019-05-13T10:49:12.232Z,36.30
2019-05-13T10:51:44.385Z,33.63
2019-05-13T10:54:17.097Z,39.48
2019-05-13T10:56:53.090Z,37.46
2019-05-13T10:59:24.411Z,38.35
2019-05-13T11:01:57.090Z,39.87
2019-05-13T11:04:32.048Z,34.55
2019-05-13T11:07:04.504Z,36.12
2019-05-13T11:09:37.561Z,36.34
2019-05-13T11:12:12.187Z,35.00
2019-05-13T11:14:46.735Z,38.37
2019-05-13T11:17:25.620Z,40.20
2019-05-13T11:19:53.685Z,41.63
2019-05-13T11:22:26.483Z,42.20
2019-05-13T11:24:59.401Z,39.54
2019-05-13T11:27:33.536Z,39.17
2019-05-13T11:30:07.976Z,39.47
2019-05-13T11:32:42.684Z,41.68
2019-05-13T11:35:15.713Z,37.84
2019-05-13T11:37:48.446Z,39.03
2019-05-13T11:40:22.514Z,38.22
2019-05-13T11:42:55.365Z,34.78
2019-05-13T11:45:28.192Z,37.02
2019-05-13T11:48:02.283Z,37.88
2019-05-13T11:50:35.150Z,38.87
2019-05-13T11:53:30.034Z,38.97
2019-05-13T11:55:42.565Z,38.35
2019-05-13T11:58:15.327Z,38.95
2019-05-13T12:00:57.947Z,39.23
2019-05-13T12:03:32.472Z,38.03
2019-05-13T12:06:05.242Z,39.26
2019-05-13T12:08:37.943Z,39.52
2019-05-13T12:11:14.087Z,37.29
2019-05-13T12:13:45.186Z,37.99
2019-05-13T12:16:17.969Z,37.53
2019-05-13T12:18:52.562Z,39.66
2019-05-13T12:21:25.128Z,40.57
2019-05-13T12:23:58.172Z,40.64
2019-05-13T12:26:33.266Z,38.14
2019-05-13T12:29:05.634Z,40.76
2019-05-13T12:31:38.357Z,36.12
2019-05-13T12:34:13.047Z,37.56
2019-05-13T12:36:45.537Z,37.82
2019-05-13T12:39:18.288Z,37.59
2019-05-13T12:41:53.538Z,37.43
2019-05-13T12:44:25.394Z,37.97
2019-05-13T12:46:58.207Z,39.54
2019-05-13T12:49:33.522Z,38.94
2019-05-13T12:52:05.335Z,38.19
2019-05-13T12:54:38.037Z,37.77
2019-05-13T12:57:13.226Z,38.45
2019-05-13T12:59:45.236Z,38.67
2019-05-13T13:02:18.032Z,41.66
2019-05-13T13:05:09.297Z,37.79
2019-05-13T13:07:25.331Z,39.52
2019-05-13T13:09:58.253Z,40.05
2019-05-13T13:12:35.960Z,38.74
2019-05-13T13:15:31.737Z,36.85
2019-05-13T13:17:41.467Z,40.01
2019-05-13T13:20:15.614Z,38.61
2019-05-13T13:22:48.528Z,37.86
2019-05-13T13:25:23.836Z,35.06
2019-05-13T13:28:15.243Z,34.88
2019-05-13T13:30:35.044Z,34.60
2019-05-13T13:33:04.683Z,37.07
2019-05-13T13:35:37.725Z,39.06
2019-05-13T13:38:10.565Z,37.94
2019-05-13T13:40:45.677Z,40.79
2019-05-13T13:43:18.281Z,40.21
2019-05-13T13:46:17.143Z,41.25
2019-05-13T13:48:26.156Z,42.38
2019-05-13T13:50:58.849Z,41.64
2019-05-13T13:53:33.249Z,41.68
2019-05-13T13:56:06.295Z,43.74
2019-05-13T13:58:43.363Z,41.55
2019-05-13T14:01:18.429Z,43.42
2019-05-13T14:03:47.912Z,41.89
2019-05-13T14:07:22.850Z,40.61
2019-05-13T14:08:55.064Z,40.12
2019-05-13T14:11:27.768Z,38.25
2019-05-13T14:14:02.186Z,34.38
2019-05-13T14:16:35.380Z,37.07
2019-05-13T14:19:08.686Z,35.79
2019-05-13T14:21:41.740Z,33.82
2019-05-13T14:24:14.490Z,37.48
2019-05-13T14:26:47.173Z,37.75
2019-05-13T14:29:21.339Z,40.31
2019-05-13T14:31:54.358Z,42.73
2019-05-13T14:34:27.223Z,42.92
2019-05-13T14:37:01.183Z,43.20
2019-05-13T14:39:36.104Z,44.28
2019-05-13T14:42:08.534Z,44.17
2019-05-13T14:44:41.306Z,43.66
2019-05-13T14:47:14.254Z,45.17
2019-05-13T14:49:46.977Z,44.78
2019-05-13T14:52:22.092Z,43.07
2019-05-13T14:54:54.190Z,38.23
2019-05-13T14:57:26.915Z,42.96
2019-05-13T15:00:02.199Z,40.75
2019-05-13T15:02:35.965Z,40.46
2019-05-13T15:05:11.998Z,41.77
2019-05-13T15:07:44.623Z,42.25
2019-05-13T15:10:17.946Z,43.14
2019-05-13T15:12:52.421Z,44.67
2019-05-13T15:15:25.129Z,42.30
2019-05-13T15:17:57.895Z,44.07
2019-05-13T15:20:33.077Z,40.62
2019-05-13T15:23:05.067Z,44.29
2019-05-13T15:25:38.238Z,40.92
2019-05-13T15:28:11.975Z,42.90
2019-05-13T15:30:45.027Z,43.69
2019-05-13T15:33:17.767Z,42.40
2019-05-13T15:35:51.923Z,42.99
2019-05-13T15:38:24.824Z,42.92
2019-05-13T15:40:57.522Z,40.26
2019-05-13T15:43:31.921Z,40.99
2019-05-13T15:46:04.626Z,38.37
2019-05-13T15:48:37.582Z,38.82
2019-05-13T15:51:11.279Z,38.91
2019-05-13T15:53:44.233Z,41.55
2019-05-13T15:56:16.980Z,43.45
2019-05-13T15:58:52.662Z,44.72
2019-05-13T16:01:24.597Z,44.73
2019-05-13T16:03:57.267Z,45.18
2019-05-13T16:06:32.138Z,44.85
2019-05-13T16:09:06.446Z,45.17
2019-05-13T16:11:41.462Z,47.35
2019-05-13T16:14:13.721Z,44.08
2019-05-13T16:16:46.571Z,44.86
2019-05-13T16:19:19.866Z,45.91
2019-05-13T16:21:53.881Z,42.65
2019-05-13T16:24:26.666Z,40.97
2019-05-13T16:26:59.347Z,40.25
2019-05-13T16:29:32.229Z,38.88
2019-05-13T16:32:05.381Z,40.55
2019-05-13T16:34:38.292Z,39.54
2019-05-13T16:37:11.772Z,40.97
2019-05-13T16:39:44.543Z,39.60
2019-05-13T16:42:17.396Z,37.78
2019-05-13T16:44:51.619Z,39.43
2019-05-13T16:47:24.470Z,39.92
2019-05-13T16:49:57.270Z,43.46
2019-05-13T16:52:31.804Z,43.29
2019-05-13T16:55:05.020Z,43.88
2019-05-13T16:57:37.786Z,42.10
2019-05-13T17:00:11.811Z,41.26
2019-05-13T17:02:44.513Z,43.67
2019-05-13T17:05:17.628Z,42.70
2019-05-13T17:07:51.547Z,41.10
2019-05-13T17:10:24.373Z,41.73
2019-05-13T17:12:57.119Z,42.48
2019-05-13T17:15:31.159Z,43.82
2019-05-13T17:18:11.720Z,43.45
2019-05-13T17:20:38.432Z,42.78
2019-05-13T17:23:12.395Z,42.03
2019-05-13T17:25:45.345Z,41.79
2019-05-13T17:28:18.660Z,41.42
2019-05-13T17:30:52.042Z,40.96
2019-05-13T17:33:25.107Z,41.36
2019-05-13T17:35:57.747Z,40.10
2019-05-13T17:38:32.353Z,40.56
2019-05-13T17:41:05.407Z,42.55
2019-05-13T17:43:38.227Z,42.36
2019-05-13T17:46:10.953Z,42.66
2019-05-13T17:48:43.689Z,40.44
2019-05-13T17:51:16.630Z,42.02
2019-05-13T17:53:51.901Z,42.31
2019-05-13T17:56:23.937Z,43.33
2019-05-13T17:58:56.638Z,42.06
2019-05-13T18:01:31.699Z,42.60
2019-05-13T18:04:04.216Z,43.81
2019-05-13T18:06:36.952Z,42.61
2019-05-13T18:09:11.884Z,44.57
2019-05-13T18:11:44.239Z,42.06
2019-05-13T18:14:17.010Z,44.89
2019-05-13T18:16:49.864Z,44.75
2019-05-13T18:19:25.564Z,46.63
2019-05-13T18:21:56.967Z,44.69
2019-05-13T18:24:31.934Z,44.32
2019-05-13T18:27:04.235Z,45.26
2019-05-13T18:29:36.991Z,47.12
2019-05-13T18:32:12.154Z,47.60
2019-05-13T18:34:44.279Z,45.37
2019-05-13T18:37:17.064Z,45.17
2019-05-13T18:39:51.885Z,46.00
2019-05-13T18:42:24.195Z,45.56
2019-05-13T18:44:56.878Z,45.06
2019-05-13T18:47:31.597Z,43.91
2019-05-13T18:50:04.421Z,46.13
2019-05-13T18:52:37.246Z,46.41
2019-05-13T18:55:12.244Z,48.61
2019-05-13T18:57:44.389Z,48.50
2019-05-13T19:00:17.313Z,49.42
2019-05-13T19:02:50.058Z,50.07
2019-05-13T19:05:22.775Z,49.07
2019-05-13T19:07:55.525Z,48.64
2019-05-13T19:10:28.374Z,49.23
2019-05-13T19:13:01.697Z,49.23
2019-05-13T19:15:34.478Z,49.84
2019-05-13T19:18:07.243Z,51.01
2019-05-13T19:20:41.849Z,49.88
2019-05-13T19:23:14.352Z,48.91
2019-05-13T19:25:47.157Z,49.81
2019-05-13T19:28:22.127Z,50.48
2019-05-13T19:30:56.688Z,50.81
2019-05-13T19:33:28.793Z,52.66
2019-05-13T19:36:01.738Z,52.69
2019-05-13T19:38:34.431Z,51.33
2019-05-13T19:41:07.120Z,50.12
2019-05-13T19:43:41.484Z,52.18
2019-05-13T19:46:14.119Z,51.90
2019-05-13T19:48:46.790Z,53.27
2019-05-13T19:51:21.588Z,53.92
2019-05-13T19:53:53.679Z,54.18
2019-05-13T19:56:27.230Z,53.58
2019-05-13T19:59:01.566Z,51.32
2019-05-13T20:01:34.556Z,53.30
2019-05-13T20:04:07.344Z,51.06
2019-05-13T20:06:41.454Z,51.06
2019-05-13T20:09:14.352Z,52.34
2019-05-13T20:11:47.050Z,52.37
2019-05-13T20:14:22.220Z,53.51
2019-05-13T20:16:54.265Z,52.17
2019-05-13T20:19:27.096Z,49.78
2019-05-13T20:22:02.193Z,51.29
2019-05-13T20:24:34.042Z,50.56
2019-05-13T20:27:06.977Z,50.04
2019-05-13T20:29:41.567Z,51.88
2019-05-13T20:32:15.017Z,52.69
2019-05-13T20:34:47.693Z,52.83
2019-05-13T20:37:21.495Z,52.12
2019-05-13T20:39:54.310Z,50.52
2019-05-13T20:42:27.132Z,51.04
2019-05-13T20:45:02.267Z,52.18
2019-05-13T20:47:34.169Z,51.39
2019-05-13T20:50:07.814Z,50.93
2019-05-13T20:52:42.027Z,54.42
2019-05-13T20:55:15.016Z,54.17
2019-05-13T20:57:47.749Z,56.58
2019-05-13T21:00:21.148Z,56.94
2019-05-13T21:02:53.778Z,57.35
2019-05-13T21:05:26.583Z,56.62
2019-05-13T21:08:01.631Z,57.85
2019-05-13T21:10:33.766Z,56.39
2019-05-13T21:13:06.639Z,55.64
2019-05-13T21:15:38.837Z,55.84
2019-05-13T21:18:11.591Z,55.85
2019-05-13T21:20:44.321Z,56.95
2019-05-13T21:23:16.993Z,57.11
2019-05-13T21:25:51.097Z,58.28
2019-05-13T21:28:23.957Z,59.21
2019-05-13T21:30:56.630Z,59.48
2019-05-13T21:33:31.314Z,56.85
2019-05-13T21:36:03.741Z,58.13
2019-05-13T21:38:36.467Z,57.36
2019-05-13T21:41:09.131Z,59.00
2019-05-13T21:43:41.835Z,59.12
2019-05-13T21:46:14.535Z,59.84
2019-05-13T21:48:47.235Z,62.02
2019-05-13T21:51:22.163Z,62.79
2019-05-13T21:53:54.224Z,63.57
2019-05-13T21:56:26.849Z,64.12
2019-05-13T21:59:01.418Z,64.65
2019-05-13T22:01:33.988Z,64.74
2019-05-13T22:04:06.802Z,65.52
2019-05-13T22:06:39.538Z,65.72
2019-05-13T22:09:12.470Z,65.76
2019-05-13T22:11:45.059Z,64.84
2019-05-13T22:14:17.669Z,65.20
2019-05-13T22:16:51.791Z,63.30
2019-05-13T22:19:24.476Z,61.71
2019-05-13T22:21:57.289Z,62.25
2019-05-13T22:24:31.219Z,61.79
2019-05-13T22:27:04.053Z,62.52
2019-05-13T22:29:36.265Z,62.77
2019-05-13T22:32:11.157Z,59.59
2019-05-13T22:34:43.212Z,59.66
2019-05-13T22:37:15.048Z,60.92
2019-05-13T22:39:47.284Z,58.60
2019-05-13T22:42:21.473Z,56.28
2019-05-13T22:44:53.678Z,57.75
2019-05-13T22:47:26.372Z,56.02
2019-05-13T22:49:59.128Z,54.79
2019-05-13T22:52:31.932Z,55.58
2019-05-13T22:55:04.807Z,54.61
2019-05-13T22:57:37.416Z,53.10
2019-05-13T23:00:11.934Z,53.94
2019-05-13T23:02:44.870Z,55.92
2019-05-13T23:05:17.513Z,56.07
2019-05-13T23:07:51.424Z,55.50
2019-05-13T23:10:24.223Z,55.35
2019-05-13T23:12:56.979Z,55.22
2019-05-13T23:15:29.677Z,55.07
2019-05-13T23:18:02.362Z,54.32
2019-05-13T23:20:34.971Z,54.20
2019-05-13T23:23:07.649Z,53.38
2019-05-13T23:25:42.993Z,53.99
2019-05-13T23:28:14.639Z,52.38
2019-05-13T23:30:47.298Z,52.71
2019-05-13T23:33:21.921Z,53.53
2019-05-13T23:35:54.339Z,53.62
2019-05-13T23:38:27.031Z,52.74
2019-05-13T23:41:01.880Z,53.08
2019-05-13T23:43:34.001Z,53.83
2019-05-13T23:46:06.732Z,53.22
2019-05-13T23:48:41.288Z,53.57
2019-05-13T23:51:13.990Z,54.68
2019-05-13T23:53:46.675Z,53.44
2019-05-13T23:56:21.633Z,53.00
2019-05-13T23:58:53.676Z,53.47
